MMPR/PVR METAR and TAF weather

Enter ICAO airport designator
Station Type Date Time Source
MMPR METAR 2019/10/22 15:41 UTC NOAA

MMPR 221541Z 00000KT 15SM BKN080 27/22 A2992 RMK 8/030 DSNTS CB 3-4 QUADS


Station Type Date Time Source
MMPR Decoded METAR 2019/10/22 15:41 UTC NOAA

Puerto Vallarta / Lic, Mexico (MMPR) 20-41N 105-15W
Oct 22, 2019 - 11:41 AM EDT / 2019.10.22 1541 UTC
Wind: Calm:0
Visibility: 15 mile(s):0
Sky conditions: mostly cloudy
Weather: Cumulonimbus clouds observed
Temperature: 80 F (27 C)
Dew Point: 71 F (22 C)
Relative Humidity: 74%
Pressure (altimeter): 29.92 in. Hg (1013 hPa)
ob: MMPR 221541Z 00000KT 15SM BKN080 27/22 A2992 RMK 8/030 DSNTS CB 3-4 QUADS
cycle: 15

Station Type Date Time Source
MMPR TAF 2019/10/22 12:40 UTC NOAA

TAF MMPR 221038Z 2212/2318 03005KT P6SM SCT020 BKN250 TX27/2218Z TN22/2212Z
FM221600 20010KT P6SM SCT020 BKN250
FM230200 03005KT P6SM SCT020 BKN080
FM231600 20010KT P6SM SCT020 SCT250

Example: see airport list